createdAt,value
2019-05-07T01:52:27.065Z,0.00
2019-05-07T01:53:27.342Z,0.00
2019-05-07T01:56:03.331Z,0.00
2019-05-07T01:57:02.971Z,0.00
2019-05-07T02:00:02.381Z,0.00
2019-05-07T02:00:59.807Z,0.00
2019-05-07T02:01:59.750Z,0.00
2019-05-07T02:02:59.736Z,0.00
2019-05-07T02:03:59.716Z,0.00
2019-05-07T02:04:59.687Z,0.00
2019-05-07T02:05:59.623Z,0.00
2019-05-07T02:06:59.611Z,0.00
2019-05-07T02:07:59.608Z,0.00
2019-05-07T02:08:59.562Z,0.00
2019-05-07T02:09:59.545Z,0.00
2019-05-07T02:10:59.529Z,0.00
2019-05-07T02:11:59.523Z,0.00
2019-05-07T02:12:59.513Z,0.00
2019-05-07T02:13:59.473Z,0.00
2019-05-07T02:14:59.450Z,0.00
2019-05-07T02:16:01.867Z,0.00
2019-05-07T02:16:59.415Z,0.00
2019-05-07T02:17:59.429Z,0.00
2019-05-07T02:18:59.379Z,0.00
2019-05-07T02:19:59.358Z,0.00
2019-05-07T02:20:59.345Z,0.00
2019-05-07T02:21:59.324Z,0.00
2019-05-07T03:14:49.017Z,0.00
2019-05-07T03:15:49.100Z,0.00
2019-05-07T03:17:54.604Z,0.00
2019-05-07T03:18:54.804Z,0.00
2019-05-07T03:19:54.572Z,0.00
2019-05-07T03:20:54.544Z,0.00
2019-05-07T03:21:55.109Z,0.00
2019-05-07T03:22:54.514Z,0.00
2019-05-07T03:23:57.754Z,0.00
2019-05-07T05:19:25.134Z,528.00
2019-05-07T05:20:25.111Z,536.00
2019-05-07T05:22:29.187Z,564.00
2019-05-07T05:23:29.135Z,580.00
2019-05-07T05:25:33.291Z,620.00
2019-05-07T05:26:33.255Z,628.00
2019-05-07T05:28:37.681Z,664.00
2019-05-07T05:29:37.655Z,692.00
2019-05-07T05:31:42.312Z,736.00
2019-05-07T05:32:42.533Z,752.00
2019-05-07T05:34:46.468Z,776.00
2019-05-07T05:35:46.451Z,792.00
2019-05-07T05:37:52.043Z,836.00
2019-05-07T05:38:52.895Z,852.00
2019-05-07T05:40:55.287Z,868.00
2019-05-07T05:41:55.253Z,876.00
2019-05-07T05:43:59.696Z,928.00
2019-05-07T05:45:01.965Z,984.00
2019-05-07T05:47:04.112Z,1068.00
2019-05-07T05:48:08.034Z,1104.00
2019-05-07T05:49:57.427Z,1124.00
2019-05-07T05:50:57.403Z,1136.00
2019-05-07T05:53:02.785Z,1208.00
2019-05-07T05:54:02.087Z,1228.00
2019-05-07T05:56:06.279Z,1348.00
2019-05-07T05:57:06.234Z,1472.00
2019-05-07T05:59:12.152Z,1968.00
2019-05-07T06:00:12.648Z,1640.00
2019-05-07T06:01:12.959Z,1632.00
2019-05-07T06:02:12.098Z,2144.00
2019-05-07T06:03:11.944Z,1620.00
2019-05-07T06:04:12.431Z,1540.00
2019-05-07T06:05:12.495Z,1552.00
2019-05-07T06:06:12.655Z,1580.00
2019-05-07T06:07:13.945Z,1616.00
2019-05-07T06:08:12.458Z,1572.00
2019-05-07T06:09:12.321Z,1592.00
2019-05-07T06:10:12.719Z,1604.00
2019-05-07T06:11:11.851Z,1580.00
2019-05-07T06:12:12.460Z,1544.00
2019-05-07T06:13:12.318Z,1540.00
2019-05-07T06:14:10.397Z,1520.00
2019-05-07T06:15:12.536Z,1532.00
2019-05-07T06:16:12.428Z,1584.00
2019-05-07T06:17:10.351Z,1664.00
2019-05-07T06:18:18.864Z,1756.00
2019-05-07T06:19:10.320Z,1832.00
2019-05-07T06:20:12.193Z,1876.00
2019-05-07T06:21:12.465Z,1948.00
2019-05-07T06:22:12.640Z,1944.00
2019-05-07T06:23:12.702Z,1984.00
2019-05-07T06:24:11.889Z,2040.00
2019-05-07T06:25:10.219Z,2096.00
2019-05-07T06:26:12.499Z,2112.00
2019-05-07T06:27:12.159Z,2120.00
2019-05-07T06:28:12.479Z,2232.00
2019-05-07T06:29:11.904Z,2204.00
2019-05-07T06:30:12.043Z,2088.00
2019-05-07T06:31:12.123Z,2052.00
2019-05-07T06:32:12.073Z,2056.00
2019-05-07T06:33:12.251Z,2068.00
2019-05-07T06:34:11.940Z,2056.00
2019-05-07T06:35:12.145Z,2084.00
2019-05-07T06:36:12.363Z,1900.00
2019-05-07T06:37:11.872Z,1904.00
2019-05-07T06:38:12.283Z,1964.00
2019-05-07T06:39:09.995Z,2136.00
2019-05-07T06:40:11.953Z,2180.00
2019-05-07T06:41:12.065Z,2280.00
2019-05-07T06:42:09.938Z,2268.00
2019-05-07T06:43:10.351Z,2248.00
2019-05-07T06:44:09.911Z,2320.00
2019-05-07T06:45:12.241Z,2328.00
2019-05-07T06:46:09.875Z,2380.00
2019-05-07T06:47:09.860Z,2420.00
2019-05-07T06:48:09.872Z,2384.00
2019-05-07T06:49:09.826Z,2400.00
2019-05-07T06:50:09.811Z,2404.00
2019-05-07T06:51:09.795Z,2444.00
2019-05-07T06:52:12.120Z,2456.00
2019-05-07T06:53:11.948Z,2412.00
2019-05-07T06:54:09.746Z,2420.00
2019-05-07T06:55:09.732Z,2460.00
2019-05-07T06:56:12.043Z,2480.00
2019-05-07T06:57:09.715Z,2264.00
2019-05-07T06:58:12.098Z,2260.00
2019-05-07T06:59:09.669Z,2292.00
2019-05-07T07:00:11.905Z,2336.00
2019-05-07T07:01:11.961Z,2380.00
2019-05-07T07:02:09.624Z,2436.00
2019-05-07T07:03:09.607Z,2544.00
2019-05-07T07:04:09.591Z,2640.00
2019-05-07T07:05:09.575Z,2712.00
2019-05-07T07:06:09.559Z,2752.00
2019-05-07T07:07:24.030Z,2840.00
2019-05-07T07:08:09.533Z,2884.00
2019-05-07T07:09:09.509Z,2996.00
2019-05-07T07:10:11.876Z,2984.00
2019-05-07T07:11:09.483Z,3008.00
2019-05-07T07:12:09.475Z,3132.00
2019-05-07T07:13:11.866Z,3160.00
2019-05-07T07:14:09.435Z,3104.00
2019-05-07T07:15:12.069Z,3360.00
2019-05-07T07:16:09.403Z,3332.00
2019-05-07T07:17:09.388Z,2804.00
2019-05-07T07:18:09.374Z,2632.00
2019-05-07T07:19:09.361Z,2536.00
2019-05-07T07:20:09.342Z,2540.00
2019-05-07T07:21:09.328Z,2572.00
2019-05-07T07:22:09.319Z,2660.00
2019-05-07T07:23:09.296Z,2716.00
2019-05-07T07:24:09.282Z,2804.00
2019-05-07T07:25:09.265Z,2820.00
2019-05-07T07:26:09.248Z,2792.00
2019-05-07T07:27:09.547Z,2804.00
2019-05-07T07:28:09.410Z,2956.00
2019-05-07T07:29:09.204Z,2912.00
2019-05-07T07:30:09.192Z,2908.00
2019-05-07T07:31:09.176Z,2952.00
2019-05-07T07:32:09.164Z,3112.00
2019-05-07T07:33:09.146Z,3048.00
2019-05-07T07:34:09.132Z,3036.00
2019-05-07T07:35:09.120Z,3036.00
2019-05-07T07:36:09.101Z,3064.00
2019-05-07T07:37:12.525Z,3104.00
2019-05-07T07:38:09.073Z,3032.00
2019-05-07T07:39:09.056Z,3044.00
2019-05-07T07:40:09.045Z,2880.00
2019-05-07T07:41:09.027Z,2996.00
2019-05-07T07:42:09.014Z,3080.00
2019-05-07T07:43:08.999Z,3116.00
2019-05-07T07:44:08.992Z,3152.00
2019-05-07T07:45:08.965Z,3548.00
2019-05-07T07:46:08.953Z,3352.00
2019-05-07T07:47:08.961Z,3640.00
2019-05-07T07:48:08.926Z,3656.00
2019-05-07T07:49:12.418Z,3516.00
2019-05-07T07:50:08.897Z,3676.00
2019-05-07T07:51:08.878Z,3584.00
2019-05-07T07:52:08.867Z,3664.00
2019-05-07T07:53:08.850Z,3652.00
2019-05-07T07:54:08.843Z,3892.00
2019-05-07T07:55:08.824Z,4188.00
2019-05-07T07:56:08.809Z,5264.00
2019-05-07T07:57:08.796Z,4004.00
2019-05-07T07:58:08.783Z,3852.00
2019-05-07T07:59:08.762Z,3816.00
2019-05-07T08:00:08.758Z,3512.00
2019-05-07T08:01:08.738Z,3508.00
2019-05-07T08:02:08.722Z,3552.00
2019-05-07T08:03:08.726Z,3552.00
2019-05-07T08:04:08.691Z,3628.00
2019-05-07T08:05:08.683Z,3660.00
2019-05-07T08:06:08.670Z,3928.00
2019-05-07T08:07:08.655Z,5176.00
2019-05-07T08:08:08.637Z,4936.00
2019-05-07T08:09:08.624Z,4604.00
2019-05-07T08:10:08.614Z,3960.00
2019-05-07T08:11:08.593Z,3548.00
2019-05-07T08:12:08.590Z,3476.00
2019-05-07T08:13:08.586Z,3396.00
2019-05-07T08:14:08.559Z,3388.00
2019-05-07T08:15:16.701Z,3320.00
2019-05-07T08:16:08.532Z,3228.00
2019-05-07T08:17:08.520Z,3176.00
2019-05-07T08:18:08.503Z,3188.00
2019-05-07T08:19:21.363Z,2852.00
2019-05-07T08:20:08.477Z,2720.00
2019-05-07T08:21:08.461Z,2620.00
2019-05-07T08:22:08.451Z,2572.00
2019-05-07T08:23:08.437Z,2540.00
2019-05-07T08:24:08.423Z,2528.00
2019-05-07T08:25:08.409Z,2548.00
2019-05-07T08:26:08.390Z,2580.00
2019-05-07T08:27:08.390Z,2616.00
2019-05-07T08:28:08.369Z,2664.00
2019-05-07T08:29:08.353Z,2724.00
2019-05-07T08:30:08.341Z,2796.00
2019-05-07T08:31:08.321Z,2880.00
2019-05-07T08:32:08.313Z,2976.00
2019-05-07T08:33:09.811Z,3072.00
2019-05-07T08:34:08.283Z,3176.00
2019-05-07T08:35:08.270Z,3324.00
2019-05-07T08:36:08.257Z,3304.00
2019-05-07T08:37:08.244Z,3624.00
2019-05-07T08:38:08.229Z,3692.00
2019-05-07T08:39:08.230Z,4180.00
2019-05-07T08:40:08.209Z,4592.00
2019-05-07T08:41:08.185Z,4712.00
2019-05-07T08:42:08.171Z,4596.00
2019-05-07T08:43:08.161Z,4576.00
2019-05-07T08:44:12.312Z,5276.00
2019-05-07T08:45:08.170Z,5996.00
2019-05-07T08:46:08.123Z,6064.00
2019-05-07T08:47:08.115Z,4844.00
2019-05-07T08:48:08.097Z,4856.00
2019-05-07T08:49:08.082Z,5056.00
2019-05-07T08:50:08.086Z,4932.00
2019-05-07T08:51:08.047Z,5272.00
2019-05-07T08:52:08.043Z,5376.00
2019-05-07T08:53:08.031Z,5688.00
2019-05-07T08:54:08.014Z,5996.00
2019-05-07T08:55:08.004Z,6024.00
2019-05-07T08:56:07.991Z,6304.00
2019-05-07T08:57:07.982Z,6544.00
2019-05-07T08:58:07.966Z,6816.00
2019-05-07T08:59:07.954Z,6676.00
2019-05-07T09:00:07.941Z,6464.00
2019-05-07T09:01:07.935Z,6612.00
2019-05-07T09:02:07.911Z,7412.00
2019-05-07T09:03:19.319Z,7908.00
2019-05-07T09:04:07.923Z,7968.00
2019-05-07T09:05:09.339Z,7400.00
2019-05-07T09:06:07.871Z,7380.00
2019-05-07T09:07:07.859Z,6808.00
2019-05-07T09:08:07.847Z,7060.00
2019-05-07T09:09:07.835Z,6876.00
2019-05-07T09:10:07.826Z,5976.00
2019-05-07T09:11:07.815Z,5868.00
2019-05-07T09:12:07.804Z,6568.00
2019-05-07T09:13:07.802Z,6352.00
2019-05-07T09:14:07.785Z,6172.00
2019-05-07T09:15:07.771Z,6292.00
2019-05-07T09:16:07.759Z,6076.00
2019-05-07T09:17:07.743Z,5844.00
2019-05-07T09:18:07.736Z,6240.00
2019-05-07T09:19:07.727Z,6232.00
2019-05-07T09:20:09.306Z,5968.00
2019-05-07T09:21:07.706Z,6160.00
2019-05-07T09:22:07.691Z,4948.00
2019-05-07T09:23:07.682Z,5500.00
2019-05-07T09:24:07.678Z,6196.00
2019-05-07T09:25:07.663Z,5728.00
2019-05-07T09:26:07.656Z,5464.00
2019-05-07T09:27:07.633Z,5484.00
2019-05-07T09:28:07.635Z,5828.00
2019-05-07T09:29:07.620Z,5804.00
2019-05-07T09:30:07.625Z,5556.00
2019-05-07T09:31:07.595Z,5108.00
2019-05-07T09:32:07.590Z,5092.00
2019-05-07T09:33:07.578Z,5620.00
2019-05-07T09:34:07.566Z,6220.00
2019-05-07T09:35:07.552Z,6052.00
2019-05-07T09:36:07.540Z,6044.00
2019-05-07T09:37:07.524Z,5928.00
2019-05-07T09:38:07.517Z,5532.00
2019-05-07T09:39:07.507Z,4420.00
2019-05-07T09:40:07.516Z,4172.00
2019-05-07T09:41:07.488Z,4016.00
2019-05-07T09:42:07.479Z,3856.00
2019-05-07T09:43:07.460Z,4604.00
2019-05-07T09:44:07.472Z,4080.00
2019-05-07T09:45:07.439Z,3936.00
2019-05-07T09:46:07.430Z,4140.00
2019-05-07T09:47:07.418Z,3884.00
2019-05-07T09:48:07.410Z,4528.00
2019-05-07T09:49:07.392Z,3592.00
2019-05-07T09:50:08.835Z,3532.00
2019-05-07T09:51:07.368Z,3928.00
2019-05-07T09:52:07.362Z,3520.00
2019-05-07T09:53:07.367Z,3528.00
2019-05-07T09:54:07.345Z,3728.00
2019-05-07T09:55:14.877Z,3864.00
2019-05-07T09:56:07.316Z,3716.00
2019-05-07T09:57:24.587Z,3536.00
2019-05-07T09:58:07.298Z,3388.00
2019-05-07T09:59:07.282Z,3332.00
2019-05-07T10:00:07.275Z,3464.00
2019-05-07T10:01:07.259Z,3572.00
2019-05-07T10:02:07.255Z,3368.00
2019-05-07T10:03:07.238Z,2856.00
2019-05-07T10:04:07.226Z,2580.00
2019-05-07T10:05:07.215Z,2356.00
2019-05-07T10:06:07.196Z,2184.00
2019-05-07T10:07:07.193Z,2112.00
2019-05-07T10:08:07.174Z,2132.00
2019-05-07T10:09:07.165Z,2220.00
2019-05-07T10:10:07.153Z,2388.00
2019-05-07T10:11:07.149Z,2524.00
2019-05-07T10:12:07.138Z,2580.00
2019-05-07T10:13:07.125Z,2576.00
2019-05-07T10:14:07.120Z,2560.00
2019-05-07T10:15:07.099Z,2528.00
2019-05-07T10:16:07.829Z,2508.00
2019-05-07T10:17:07.075Z,2524.00
2019-05-07T10:18:07.061Z,2576.00
2019-05-07T10:19:07.042Z,2692.00
2019-05-07T10:20:18.278Z,2784.00
2019-05-07T10:21:07.020Z,2808.00
2019-05-07T10:22:07.014Z,2736.00
2019-05-07T10:23:07.002Z,2660.00
2019-05-07T10:24:06.985Z,2644.00
2019-05-07T10:25:06.969Z,2820.00
2019-05-07T10:26:06.957Z,2768.00
2019-05-07T10:27:06.948Z,2844.00
2019-05-07T10:28:06.939Z,2912.00
2019-05-07T10:29:06.923Z,2992.00
2019-05-07T10:30:06.913Z,3136.00
2019-05-07T10:31:06.895Z,3296.00
2019-05-07T10:32:06.888Z,3448.00
2019-05-07T10:33:06.869Z,3764.00
2019-05-07T10:34:06.857Z,3460.00
2019-05-07T10:35:06.846Z,3468.00
2019-05-07T10:36:06.836Z,3988.00
2019-05-07T10:37:06.828Z,3700.00
2019-05-07T10:38:06.806Z,3856.00
2019-05-07T10:39:06.792Z,4348.00
2019-05-07T10:40:06.780Z,5932.00
2019-05-07T10:41:06.760Z,4800.00
2019-05-07T10:42:06.753Z,8572.00
2019-05-07T10:43:06.744Z,8012.00
2019-05-07T10:44:06.730Z,5972.00
2019-05-07T10:45:06.717Z,5044.00
2019-05-07T10:46:06.705Z,5776.00
2019-05-07T10:47:06.695Z,4884.00
2019-05-07T10:48:06.681Z,6396.00
2019-05-07T10:49:06.670Z,4972.00
2019-05-07T10:50:06.660Z,5432.00
2019-05-07T10:51:06.648Z,5328.00
2019-05-07T10:52:06.634Z,5336.00
2019-05-07T10:53:06.624Z,5352.00
2019-05-07T10:54:06.610Z,5788.00
2019-05-07T10:55:06.600Z,8000.00
2019-05-07T10:56:06.591Z,9160.00
2019-05-07T10:57:06.580Z,9252.00
2019-05-07T10:58:06.569Z,9204.00
2019-05-07T10:59:06.562Z,9284.00
2019-05-07T11:00:06.569Z,9048.00
2019-05-07T11:01:06.537Z,9744.00
2019-05-07T11:02:06.526Z,7924.00
2019-05-07T11:03:06.515Z,6584.00
2019-05-07T11:04:06.508Z,5628.00
2019-05-07T11:05:06.513Z,5560.00
2019-05-07T11:06:06.486Z,5496.00
2019-05-07T11:07:06.477Z,5608.00
2019-05-07T11:08:06.472Z,5180.00
2019-05-07T11:09:06.465Z,5384.00
2019-05-07T11:10:06.452Z,5696.00
2019-05-07T11:11:06.445Z,6772.00
2019-05-07T11:12:06.435Z,8976.00
2019-05-07T11:13:06.426Z,7216.00
2019-05-07T11:14:06.422Z,10524.00
2019-05-07T11:15:06.411Z,7980.00
2019-05-07T11:16:06.405Z,10808.00
2019-05-07T11:17:06.396Z,5120.00
2019-05-07T11:18:06.399Z,4820.00
2019-05-07T11:19:06.382Z,5272.00
2019-05-07T11:20:06.375Z,9256.00
2019-05-07T11:21:06.366Z,6340.00
2019-05-07T11:22:06.354Z,6920.00
2019-05-07T11:23:06.351Z,4588.00
2019-05-07T11:24:06.353Z,10544.00
2019-05-07T11:25:06.338Z,10548.00
2019-05-07T11:26:06.329Z,9824.00
2019-05-07T11:27:06.329Z,8984.00
2019-05-07T11:28:06.318Z,5540.00
2019-05-07T11:29:06.317Z,5232.00
2019-05-07T11:30:06.303Z,9556.00
2019-05-07T11:31:06.301Z,5844.00
2019-05-07T11:32:06.294Z,4456.00
2019-05-07T11:33:06.287Z,4272.00
2019-05-07T11:34:06.281Z,4052.00
2019-05-07T11:35:06.276Z,3700.00
2019-05-07T11:36:06.268Z,3384.00
2019-05-07T11:37:06.265Z,3208.00
2019-05-07T11:38:17.743Z,3104.00
2019-05-07T11:39:06.252Z,3072.00
2019-05-07T11:40:06.245Z,3132.00
2019-05-07T11:41:06.236Z,3164.00
2019-05-07T11:42:06.228Z,2988.00
2019-05-07T11:43:06.223Z,2848.00
2019-05-07T11:44:06.342Z,2744.00
2019-05-07T11:45:06.206Z,2752.00
2019-05-07T11:46:06.203Z,2824.00
2019-05-07T11:47:06.194Z,2936.00
2019-05-07T11:48:06.189Z,3092.00
2019-05-07T11:49:06.178Z,3300.00
2019-05-07T11:50:06.170Z,3568.00
2019-05-07T11:51:06.162Z,3904.00
2019-05-07T11:52:06.149Z,4932.00
2019-05-07T11:53:06.142Z,4960.00
2019-05-07T11:54:06.133Z,4872.00
2019-05-07T11:55:06.176Z,5164.00
2019-05-07T11:56:06.116Z,5000.00
2019-05-07T11:57:06.106Z,5320.00
2019-05-07T11:58:06.094Z,6500.00
2019-05-07T11:59:06.089Z,5216.00
2019-05-07T12:00:06.078Z,5496.00
2019-05-07T12:01:06.067Z,6184.00
2019-05-07T12:02:06.059Z,10388.00
2019-05-07T12:03:06.048Z,8704.00
2019-05-07T12:04:06.039Z,9092.00
2019-05-07T12:05:06.034Z,11676.00
2019-05-07T12:06:06.018Z,6304.00
2019-05-07T12:07:06.017Z,7052.00
2019-05-07T12:08:06.007Z,4768.00
2019-05-07T12:09:05.994Z,3936.00
2019-05-07T12:10:05.987Z,4132.00
2019-05-07T12:11:07.472Z,4760.00
2019-05-07T12:12:05.971Z,4540.00
2019-05-07T12:13:05.961Z,4560.00
2019-05-07T12:14:05.950Z,12628.00
2019-05-07T12:15:05.944Z,5524.00
2019-05-07T12:16:05.937Z,4240.00
2019-05-07T12:17:05.926Z,4300.00
2019-05-07T12:18:05.918Z,8576.00
2019-05-07T12:19:05.909Z,5584.00
2019-05-07T12:20:05.904Z,5712.00
2019-05-07T12:21:17.505Z,5620.00
2019-05-07T12:22:05.887Z,9032.00
2019-05-07T12:23:05.878Z,11300.00
2019-05-07T12:24:05.876Z,6268.00
2019-05-07T12:25:05.859Z,4544.00
2019-05-07T12:26:05.851Z,4176.00
2019-05-07T12:27:05.842Z,3832.00
2019-05-07T12:28:05.835Z,3908.00
2019-05-07T12:29:05.823Z,5204.00
2019-05-07T12:30:05.872Z,4496.00
2019-05-07T12:31:05.808Z,10252.00
2019-05-07T12:32:05.797Z,5920.00
2019-05-07T12:33:05.788Z,4336.00
2019-05-07T12:34:05.780Z,3504.00
2019-05-07T12:35:05.773Z,3352.00
2019-05-07T12:36:05.764Z,3272.00
2019-05-07T12:37:05.756Z,3212.00
2019-05-07T12:38:05.749Z,3192.00
2019-05-07T12:39:05.737Z,3244.00
2019-05-07T12:40:05.729Z,3384.00
2019-05-07T12:41:05.717Z,3556.00
2019-05-07T12:42:05.712Z,3728.00
2019-05-07T12:43:05.699Z,3988.00
2019-05-07T12:44:05.689Z,4300.00
2019-05-07T12:45:05.680Z,5348.00
2019-05-07T12:46:05.669Z,15136.00
2019-05-07T12:47:05.657Z,16864.00
2019-05-07T12:48:05.651Z,12000.00
2019-05-07T12:49:05.642Z,13740.00
2019-05-07T12:50:05.662Z,4532.00
2019-05-07T12:51:05.626Z,16672.00
2019-05-07T12:52:05.619Z,11308.00
2019-05-07T12:53:05.609Z,3140.00
2019-05-07T12:54:05.603Z,2628.00
2019-05-07T12:55:05.606Z,2320.00
2019-05-07T12:56:05.591Z,2152.00
2019-05-07T12:57:05.582Z,2068.00
2019-05-07T12:58:05.577Z,2044.00
2019-05-07T12:59:05.567Z,2064.00
2019-05-07T13:00:05.562Z,2136.00
2019-05-07T13:01:05.552Z,2228.00
2019-05-07T13:02:17.888Z,2344.00
2019-05-07T13:03:05.536Z,2512.00
2019-05-07T13:04:05.528Z,2748.00
2019-05-07T13:05:05.520Z,3088.00
2019-05-07T13:06:05.510Z,3512.00
2019-05-07T13:07:05.501Z,4008.00
2019-05-07T13:08:05.492Z,4984.00
2019-05-07T13:09:05.481Z,9640.00
2019-05-07T13:10:08.400Z,11184.00
2019-05-07T13:11:05.468Z,8648.00
2019-05-07T13:12:05.457Z,18080.00
2019-05-07T13:13:05.445Z,17728.00
2019-05-07T13:14:05.435Z,18144.00
2019-05-07T13:15:05.484Z,18400.00
2019-05-07T13:16:05.422Z,12616.00
2019-05-07T13:17:05.418Z,17568.00
2019-05-07T13:18:05.412Z,17920.00
2019-05-07T13:19:05.404Z,18080.00
2019-05-07T13:20:05.406Z,17280.00
2019-05-07T13:21:05.393Z,16800.00
2019-05-07T13:22:05.392Z,15968.00
2019-05-07T13:23:05.390Z,16576.00
2019-05-07T13:24:05.386Z,16192.00
2019-05-07T13:25:05.385Z,16032.00
2019-05-07T13:26:05.383Z,15520.00
2019-05-07T13:27:05.382Z,15296.00
2019-05-07T13:28:05.381Z,16224.00
2019-05-07T13:29:05.381Z,9116.00
2019-05-07T13:30:05.378Z,3256.00
2019-05-07T13:31:05.375Z,3244.00
2019-05-07T13:32:05.382Z,3628.00
2019-05-07T13:33:05.375Z,3472.00
2019-05-07T13:34:05.375Z,3236.00
2019-05-07T13:35:05.378Z,7292.00
2019-05-07T13:36:05.374Z,3688.00
2019-05-07T13:37:05.369Z,4024.00
2019-05-07T13:38:05.396Z,3860.00
2019-05-07T13:39:05.366Z,3572.00
2019-05-07T13:40:05.364Z,3512.00
2019-05-07T13:41:05.361Z,3560.00
2019-05-07T13:42:05.362Z,3872.00
2019-05-07T13:43:05.355Z,4388.00
2019-05-07T13:44:05.353Z,4352.00
2019-05-07T13:45:05.343Z,4240.00
2019-05-07T13:46:05.347Z,4488.00
2019-05-07T13:47:05.334Z,12844.00
2019-05-07T13:48:05.333Z,15328.00
2019-05-07T13:49:05.328Z,15328.00
2019-05-07T13:50:05.321Z,14832.00
2019-05-07T13:51:05.320Z,4136.00
2019-05-07T13:52:05.320Z,5220.00
2019-05-07T13:53:05.308Z,6220.00
2019-05-07T13:54:05.304Z,9652.00
2019-05-07T13:55:05.325Z,3592.00
2019-05-07T13:56:05.298Z,3420.00
2019-05-07T13:57:05.295Z,4736.00
2019-05-07T13:58:05.289Z,2572.00
2019-05-07T13:59:05.285Z,2396.00
2019-05-07T14:00:05.299Z,2356.00
2019-05-07T14:01:05.275Z,2348.00
2019-05-07T14:02:05.272Z,2344.00
2019-05-07T14:03:05.266Z,2232.00
2019-05-07T14:04:05.259Z,2200.00
2019-05-07T14:05:05.251Z,2112.00
2019-05-07T14:06:05.246Z,2056.00
2019-05-07T14:07:05.241Z,2020.00
2019-05-07T14:08:05.238Z,1948.00
2019-05-07T14:09:05.225Z,1868.00
2019-05-07T14:10:05.220Z,1792.00
2019-05-07T14:11:05.216Z,1728.00
2019-05-07T14:12:05.204Z,1680.00
2019-05-07T14:13:11.447Z,1636.00
2019-05-07T14:14:05.185Z,1588.00
2019-05-07T14:15:05.175Z,1528.00
2019-05-07T14:16:05.174Z,1456.00
2019-05-07T14:17:05.158Z,1396.00
2019-05-07T14:18:05.150Z,1360.00
2019-05-07T14:19:05.143Z,1336.00
2019-05-07T14:20:05.131Z,1336.00
2019-05-07T14:21:05.118Z,1348.00
2019-05-07T14:22:15.443Z,1352.00
2019-05-07T14:23:05.107Z,1360.00
2019-05-07T14:24:05.091Z,1372.00
2019-05-07T14:25:05.082Z,1392.00
2019-05-07T14:26:05.066Z,1420.00
2019-05-07T14:27:05.056Z,1436.00
2019-05-07T14:28:05.044Z,1448.00
2019-05-07T14:29:05.036Z,1452.00
2019-05-07T14:30:05.025Z,1464.00
2019-05-07T14:31:05.007Z,1480.00
2019-05-07T14:32:05.036Z,1500.00
2019-05-07T14:33:06.105Z,1540.00
2019-05-07T14:34:04.972Z,1588.00
2019-05-07T14:35:04.963Z,1752.00
2019-05-07T14:36:04.951Z,1900.00
2019-05-07T14:37:04.939Z,1660.00
2019-05-07T14:38:04.924Z,1576.00
2019-05-07T14:39:04.916Z,1576.00
2019-05-07T14:40:04.898Z,1592.00
2019-05-07T14:41:04.883Z,1616.00
2019-05-07T14:42:04.873Z,1664.00
2019-05-07T14:43:04.859Z,1716.00
2019-05-07T14:44:04.846Z,1784.00
2019-05-07T14:45:04.835Z,1840.00
2019-05-07T14:46:04.822Z,1896.00
2019-05-07T14:47:04.806Z,1964.00
2019-05-07T14:48:04.793Z,2044.00
2019-05-07T14:49:04.783Z,2124.00
2019-05-07T14:50:04.769Z,2184.00
2019-05-07T14:51:04.755Z,2292.00
2019-05-07T14:52:04.740Z,3220.00
2019-05-07T14:53:04.730Z,2468.00
2019-05-07T14:54:04.717Z,2588.00
2019-05-07T14:55:05.308Z,2392.00
2019-05-07T14:56:04.691Z,2264.00
2019-05-07T14:57:04.677Z,2216.00
2019-05-07T14:58:04.666Z,2216.00
2019-05-07T14:59:04.651Z,2236.00
2019-05-07T15:00:04.640Z,2304.00
2019-05-07T15:01:04.627Z,2420.00
2019-05-07T15:02:04.615Z,2620.00
2019-05-07T15:03:04.597Z,2920.00
2019-05-07T15:04:04.589Z,3524.00
2019-05-07T15:05:04.571Z,8348.00
2019-05-07T15:06:04.558Z,8632.00
2019-05-07T15:07:04.546Z,8168.00
2019-05-07T15:08:10.613Z,8072.00
2019-05-07T15:09:04.523Z,2880.00
2019-05-07T15:10:04.509Z,2828.00
2019-05-07T15:11:04.529Z,2836.00
2019-05-07T15:12:04.491Z,3592.00
2019-05-07T15:13:04.475Z,8556.00
2019-05-07T15:14:04.463Z,8508.00
2019-05-07T15:15:04.458Z,8432.00
2019-05-07T15:16:04.443Z,6468.00
2019-05-07T15:17:04.429Z,2548.00
2019-05-07T15:18:04.459Z,2464.00
2019-05-07T15:19:04.453Z,2548.00
2019-05-07T15:20:04.398Z,7948.00
2019-05-07T15:21:04.388Z,7136.00
2019-05-07T15:22:04.381Z,2904.00
2019-05-07T15:23:04.368Z,6792.00
2019-05-07T15:24:04.365Z,2544.00
2019-05-07T15:25:04.350Z,2528.00
2019-05-07T15:26:04.936Z,2384.00
2019-05-07T15:27:04.331Z,2424.00
2019-05-07T15:28:04.321Z,2372.00
2019-05-07T15:29:04.322Z,2268.00
2019-05-07T15:30:04.298Z,2092.00
2019-05-07T15:31:04.288Z,2784.00
2019-05-07T15:32:04.294Z,2800.00
2019-05-07T15:33:04.267Z,1852.00
2019-05-07T15:34:04.258Z,1764.00
2019-05-07T15:35:04.254Z,1676.00
2019-05-07T15:36:06.528Z,1632.00
2019-05-07T15:37:04.225Z,1600.00
2019-05-07T15:38:04.215Z,1564.00
2019-05-07T15:39:04.201Z,1516.00
2019-05-07T15:40:04.187Z,1444.00
2019-05-07T15:41:04.186Z,1376.00
2019-05-07T15:42:04.182Z,1344.00
2019-05-07T15:43:04.157Z,1336.00
2019-05-07T15:44:04.170Z,1340.00
2019-05-07T15:45:04.132Z,1344.00
2019-05-07T15:46:04.123Z,1336.00
2019-05-07T15:47:04.113Z,1332.00
2019-05-07T15:48:04.097Z,1320.00
2019-05-07T15:49:04.086Z,1324.00
2019-05-07T15:50:04.094Z,1384.00
2019-05-07T15:51:04.066Z,1436.00
2019-05-07T15:52:04.051Z,1416.00
2019-05-07T15:53:04.040Z,1396.00
2019-05-07T15:54:04.024Z,1420.00
2019-05-07T15:55:04.014Z,1328.00
2019-05-07T15:56:03.999Z,1372.00
2019-05-07T15:57:03.997Z,1428.00
2019-05-07T15:58:03.980Z,1564.00
2019-05-07T15:59:03.965Z,1624.00
2019-05-07T16:15:46.014Z,1712.00
2019-05-07T16:16:46.034Z,1712.00
2019-05-07T16:17:46.043Z,1692.00
2019-05-07T16:18:45.982Z,1628.00
2019-05-07T16:19:45.936Z,1552.00
2019-05-07T16:20:45.923Z,1472.00
2019-05-07T16:21:45.911Z,1348.00
2019-05-07T16:22:45.895Z,1280.00
2019-05-07T16:23:45.878Z,1228.00
2019-05-07T16:24:45.864Z,1208.00
2019-05-07T16:25:45.849Z,1144.00
2019-05-07T16:26:45.838Z,1088.00
2019-05-07T16:27:45.823Z,1024.00
2019-05-07T16:28:45.809Z,988.00
2019-05-07T16:29:45.794Z,1000.00
2019-05-07T16:30:45.784Z,972.00
2019-05-07T16:31:48.650Z,968.00
2019-05-07T16:32:45.758Z,960.00
2019-05-07T16:33:45.743Z,936.00
2019-05-07T16:34:45.726Z,920.00
2019-05-07T16:35:45.715Z,908.00
2019-05-07T16:36:45.698Z,888.00
2019-05-07T16:37:45.687Z,916.00
2019-05-07T16:38:45.674Z,956.00
2019-05-07T16:39:45.660Z,948.00
2019-05-07T16:40:45.645Z,1004.00
2019-05-07T16:41:45.629Z,1024.00
2019-05-07T16:42:45.619Z,1000.00
2019-05-07T16:43:45.604Z,972.00
2019-05-07T16:44:45.592Z,900.00
2019-05-07T16:45:45.579Z,868.00
2019-05-07T16:46:45.583Z,860.00
2019-05-07T16:47:45.549Z,836.00
2019-05-07T16:48:45.537Z,816.00
2019-05-07T16:49:45.521Z,804.00
2019-05-07T16:50:45.508Z,804.00
2019-05-07T16:51:45.495Z,800.00
2019-05-07T16:52:45.481Z,812.00
2019-05-07T16:53:45.478Z,836.00
2019-05-07T16:54:45.454Z,844.00
2019-05-07T16:55:45.442Z,832.00
2019-05-07T16:56:45.426Z,812.00
2019-05-07T16:57:45.413Z,808.00
2019-05-07T16:58:45.395Z,832.00
2019-05-07T16:59:45.383Z,860.00
2019-05-07T17:00:45.368Z,864.00
2019-05-07T17:01:45.355Z,860.00
2019-05-07T17:02:45.340Z,852.00
2019-05-07T17:03:45.325Z,840.00
2019-05-07T17:04:45.314Z,820.00
2019-05-07T17:05:45.298Z,800.00
2019-05-07T17:06:45.275Z,780.00
2019-05-07T17:07:45.272Z,752.00
2019-05-07T17:08:45.257Z,704.00
2019-05-07T17:09:45.241Z,664.00
2019-05-07T17:10:45.227Z,656.00
2019-05-07T17:11:45.212Z,656.00
2019-05-07T17:12:45.200Z,664.00
2019-05-07T17:13:45.185Z,668.00
2019-05-07T17:14:45.172Z,680.00
2019-05-07T17:15:45.156Z,664.00
2019-05-07T17:16:45.140Z,652.00
2019-05-07T17:17:45.128Z,656.00
2019-05-07T17:18:45.111Z,656.00
2019-05-07T17:19:45.098Z,632.00
2019-05-07T17:20:45.083Z,616.00
2019-05-07T17:21:45.067Z,600.00
2019-05-07T17:22:45.054Z,596.00